sensor_id;sensor_type;location;lat;lon;timestamp;temperature;humidity
6379;DHT22;3222;48.858;10.128;2023-03-14T00:02:07;10.70;99.90
6379;DHT22;3222;48.858;10.128;2023-03-14T00:04:32;10.60;99.90
6379;DHT22;3222;48.858;10.128;2023-03-14T00:06:58;10.40;99.90
6379;DHT22;3222;48.858;10.128;2023-03-14T00:09:24;10.40;99.90
6379;DHT22;3222;48.858;10.128;2023-03-14T00:11:53;10.40;99.90
6379;DHT22;3222;48.858;10.128;2023-03-14T00:14:18;10.30;99.90
6379;DHT22;3222;48.858;10.128;2023-03-14T00:16:47;10.20;99.90
6379;DHT22;3222;48.858;10.128;2023-03-14T00:19:13;10.20;99.90
6379;DHT22;3222;48.858;10.128;2023-03-14T00:21:39;10.20;99.90
6379;DHT22;3222;48.858;10.128;2023-03-14T00:24:04;10.20;99.90
6379;DHT22;3222;48.858;10.128;2023-03-14T00:26:31;10.00;99.90
6379;DHT22;3222;48.858;10.128;2023-03-14T00:28:57;10.00;99.90
6379;DHT22;3222;48.858;10.128;2023-03-14T00:31:23;9.90;99.90
6379;DHT22;3222;48.858;10.128;2023-03-14T00:33:52;9.90;99.90
6379;DHT22;3222;48.858;10.128;2023-03-14T00:36:18;9.90;99.90
6379;DHT22;3222;48.858;10.128;2023-03-14T00:38:47;9.90;99.90
6379;DHT22;3222;48.858;10.128;2023-03-14T00:41:15;9.90;99.90
6379;DHT22;3222;48.858;10.128;2023-03-14T00:43:42;9.80;99.90
6379;DHT22;3222;48.858;10.128;2023-03-14T00:46:07;9.80;99.90
6379;DHT22;3222;48.858;10.128;2023-03-14T00:48:33;9.80;99.90
6379;DHT22;3222;48.858;10.128;2023-03-14T00:51:00;9.70;99.90
6379;DHT22;3222;48.858;10.128;2023-03-14T00:53:26;9.70;99.90
6379;DHT22;3222;48.858;10.128;2023-03-14T00:55:52;9.70;99.90
6379;DHT22;3222;48.858;10.128;2023-03-14T00:58:18;9.60;99.90
6379;DHT22;3222;48.858;10.128;2023-03-14T01:00:44;9.70;99.90
6379;DHT22;3222;48.858;10.128;2023-03-14T01:03:11;9.70;99.90
6379;DHT22;3222;48.858;10.128;2023-03-14T01:05:37;9.80;99.90
6379;DHT22;3222;48.858;10.128;2023-03-14T01:08:03;9.80;99.90
6379;DHT22;3222;48.858;10.128;2023-03-14T01:10:30;9.70;99.90
6379;DHT22;3222;48.858;10.128;2023-03-14T01:12:57;9.70;99.90
6379;DHT22;3222;48.858;10.128;2023-03-14T01:15:23;9.70;99.90
6379;DHT22;3222;48.858;10.128;2023-03-14T01:17:48;9.70;99.90
6379;DHT22;3222;48.858;10.128;2023-03-14T01:20:15;9.80;99.90
6379;DHT22;3222;48.858;10.128;2023-03-14T01:22:42;9.80;99.90
6379;DHT22;3222;48.858;10.128;2023-03-14T01:25:11;9.90;99.90
6379;DHT22;3222;48.858;10.128;2023-03-14T01:27:37;9.90;99.90
6379;DHT22;3222;48.858;10.128;2023-03-14T01:30:03;9.90;99.90
6379;DHT22;3222;48.858;10.128;2023-03-14T01:32:31;10.00;99.90
6379;DHT22;3222;48.858;10.128;2023-03-14T01:34:57;9.80;99.90
6379;DHT22;3222;48.858;10.128;2023-03-14T01:37:22;9.90;99.90
6379;DHT22;3222;48.858;10.128;2023-03-14T01:39:48;10.00;99.90
6379;DHT22;3222;48.858;10.128;2023-03-14T01:42:14;9.80;99.90
6379;DHT22;3222;48.858;10.128;2023-03-14T01:47:17;9.80;99.90
6379;DHT22;3222;48.858;10.128;2023-03-14T01:49:43;9.80;99.90
6379;DHT22;3222;48.858;10.128;2023-03-14T01:52:14;9.80;99.90
6379;DHT22;3222;48.858;10.128;2023-03-14T01:54:43;9.90;99.90
6379;DHT22;3222;48.858;10.128;2023-03-14T01:57:17;10.00;99.90
6379;DHT22;3222;48.858;10.128;2023-03-14T02:00:09;9.90;99.90
6379;DHT22;3222;48.858;10.128;2023-03-14T02:02:44;9.80;99.90
6379;DHT22;3222;48.858;10.128;2023-03-14T02:05:13;9.90;99.90
6379;DHT22;3222;48.858;10.128;2023-03-14T02:07:55;9.90;99.90
6379;DHT22;3222;48.858;10.128;2023-03-14T02:10:28;9.80;99.90
6379;DHT22;3222;48.858;10.128;2023-03-14T02:12:57;9.90;99.90
6379;DHT22;3222;48.858;10.128;2023-03-14T02:15:43;10.00;99.90
6379;DHT22;3222;48.858;10.128;2023-03-14T02:18:15;9.90;99.90
6379;DHT22;3222;48.858;10.128;2023-03-14T02:21:42;9.90;99.90
6379;DHT22;3222;48.858;10.128;2023-03-14T02:24:35;9.80;99.90
6379;DHT22;3222;48.858;10.128;2023-03-14T02:27:16;9.80;99.90
6379;DHT22;3222;48.858;10.128;2023-03-14T02:29:54;9.80;99.90
6379;DHT22;3222;48.858;10.128;2023-03-14T02:32:21;9.70;99.90
6379;DHT22;3222;48.858;10.128;2023-03-14T02:34:50;9.80;99.90
6379;DHT22;3222;48.858;10.128;2023-03-14T02:37:19;9.70;99.90
6379;DHT22;3222;48.858;10.128;2023-03-14T02:39:46;9.70;99.90
6379;DHT22;3222;48.858;10.128;2023-03-14T02:42:15;9.80;99.90
6379;DHT22;3222;48.858;10.128;2023-03-14T02:44:54;9.70;99.90
6379;DHT22;3222;48.858;10.128;2023-03-14T02:47:24;9.70;99.90
6379;DHT22;3222;48.858;10.128;2023-03-14T02:49:54;9.70;99.90
6379;DHT22;3222;48.858;10.128;2023-03-14T02:52:20;9.70;99.90
6379;DHT22;3222;48.858;10.128;2023-03-14T02:54:46;9.60;99.90
6379;DHT22;3222;48.858;10.128;2023-03-14T02:57:12;9.60;99.90
6379;DHT22;3222;48.858;10.128;2023-03-14T02:59:37;9.60;99.90
6379;DHT22;3222;48.858;10.128;2023-03-14T03:02:09;9.50;99.90
6379;DHT22;3222;48.858;10.128;2023-03-14T03:04:34;9.60;99.90
6379;DHT22;3222;48.858;10.128;2023-03-14T03:07:00;9.60;99.90
6379;DHT22;3222;48.858;10.128;2023-03-14T03:09:26;9.60;99.90
6379;DHT22;3222;48.858;10.128;2023-03-14T03:11:51;9.60;99.90
6379;DHT22;3222;48.858;10.128;2023-03-14T03:14:21;9.60;99.90
6379;DHT22;3222;48.858;10.128;2023-03-14T03:16:47;9.60;99.90
6379;DHT22;3222;48.858;10.128;2023-03-14T03:19:13;9.60;99.90
6379;DHT22;3222;48.858;10.128;2023-03-14T03:21:40;9.50;99.90
6379;DHT22;3222;48.858;10.128;2023-03-14T03:24:05;9.60;99.90
6379;DHT22;3222;48.858;10.128;2023-03-14T03:26:34;9.50;99.90
6379;DHT22;3222;48.858;10.128;2023-03-14T03:29:03;9.50;99.90
6379;DHT22;3222;48.858;10.128;2023-03-14T03:31:29;9.50;99.90
6379;DHT22;3222;48.858;10.128;2023-03-14T03:33:55;9.50;99.90
6379;DHT22;3222;48.858;10.128;2023-03-14T03:36:23;9.40;99.90
6379;DHT22;3222;48.858;10.128;2023-03-14T03:38:49;9.40;99.90
6379;DHT22;3222;48.858;10.128;2023-03-14T03:41:14;9.40;99.90
6379;DHT22;3222;48.858;10.128;2023-03-14T03:43:40;9.40;99.90
6379;DHT22;3222;48.858;10.128;2023-03-14T03:46:09;9.40;99.90
6379;DHT22;3222;48.858;10.128;2023-03-14T03:48:35;9.30;99.90
6379;DHT22;3222;48.858;10.128;2023-03-14T03:51:04;9.40;99.90
6379;DHT22;3222;48.858;10.128;2023-03-14T03:53:30;9.40;99.90
6379;DHT22;3222;48.858;10.128;2023-03-14T03:55:56;9.40;99.90
6379;DHT22;3222;48.858;10.128;2023-03-14T03:58:22;9.50;99.90
6379;DHT22;3222;48.858;10.128;2023-03-14T04:00:47;9.40;99.90
6379;DHT22;3222;48.858;10.128;2023-03-14T04:03:13;9.50;99.90
6379;DHT22;3222;48.858;10.128;2023-03-14T04:05:39;9.50;99.90
6379;DHT22;3222;48.858;10.128;2023-03-14T04:08:08;9.60;99.90
6379;DHT22;3222;48.858;10.128;2023-03-14T04:10:35;9.50;99.90
6379;DHT22;3222;48.858;10.128;2023-03-14T04:13:07;9.40;99.90
6379;DHT22;3222;48.858;10.128;2023-03-14T04:15:34;9.40;99.90
6379;DHT22;3222;48.858;10.128;2023-03-14T04:18:06;9.40;99.90
6379;DHT22;3222;48.858;10.128;2023-03-14T04:20:34;9.20;99.90
6379;DHT22;3222;48.858;10.128;2023-03-14T04:23:00;9.30;99.90
6379;DHT22;3222;48.858;10.128;2023-03-14T04:25:26;9.30;99.90
6379;DHT22;3222;48.858;10.128;2023-03-14T04:27:55;9.30;99.90
6379;DHT22;3222;48.858;10.128;2023-03-14T04:30:24;9.20;99.90
6379;DHT22;3222;48.858;10.128;2023-03-14T04:32:56;9.20;99.90
6379;DHT22;3222;48.858;10.128;2023-03-14T04:35:24;9.10;99.90
6379;DHT22;3222;48.858;10.128;2023-03-14T04:37:53;9.20;99.90
6379;DHT22;3222;48.858;10.128;2023-03-14T04:40:20;9.10;99.90
6379;DHT22;3222;48.858;10.128;2023-03-14T04:42:48;9.20;99.90
6379;DHT22;3222;48.858;10.128;2023-03-14T04:45:14;9.30;99.90
6379;DHT22;3222;48.858;10.128;2023-03-14T04:47:41;9.30;99.90
6379;DHT22;3222;48.858;10.128;2023-03-14T04:50:10;9.30;99.90
6379;DHT22;3222;48.858;10.128;2023-03-14T04:52:36;9.30;99.90
6379;DHT22;3222;48.858;10.128;2023-03-14T04:55:01;9.20;99.90
6379;DHT22;3222;48.858;10.128;2023-03-14T04:57:28;9.40;99.90
6379;DHT22;3222;48.858;10.128;2023-03-14T04:59:54;9.40;99.90
6379;DHT22;3222;48.858;10.128;2023-03-14T05:02:38;9.40;99.90
6379;DHT22;3222;48.858;10.128;2023-03-14T05:05:23;9.30;99.90
6379;DHT22;3222;48.858;10.128;2023-03-14T05:08:00;9.30;99.90
6379;DHT22;3222;48.858;10.128;2023-03-14T05:10:56;9.20;99.90
6379;DHT22;3222;48.858;10.128;2023-03-14T05:13:35;9.20;99.90
6379;DHT22;3222;48.858;10.128;2023-03-14T05:16:19;9.10;99.90
6379;DHT22;3222;48.858;10.128;2023-03-14T05:18:45;9.10;99.90
6379;DHT22;3222;48.858;10.128;2023-03-14T05:21:21;9.10;99.90
6379;DHT22;3222;48.858;10.128;2023-03-14T05:24:05;9.10;99.90
6379;DHT22;3222;48.858;10.128;2023-03-14T05:26:57;9.10;99.90
6379;DHT22;3222;48.858;10.128;2023-03-14T05:29:41;9.10;99.90
6379;DHT22;3222;48.858;10.128;2023-03-14T05:32:18;9.10;99.90
6379;DHT22;3222;48.858;10.128;2023-03-14T05:35:05;9.20;99.90
6379;DHT22;3222;48.858;10.128;2023-03-14T05:37:38;9.10;99.90
6379;DHT22;3222;48.858;10.128;2023-03-14T05:40:23;9.10;99.90
6379;DHT22;3222;48.858;10.128;2023-03-14T05:43:09;9.10;99.90
6379;DHT22;3222;48.858;10.128;2023-03-14T05:45:38;9.10;99.90
6379;DHT22;3222;48.858;10.128;2023-03-14T05:48:22;9.10;99.90
6379;DHT22;3222;48.858;10.128;2023-03-14T05:51:12;9.20;99.90
6379;DHT22;3222;48.858;10.128;2023-03-14T05:54:06;9.10;99.90
6379;DHT22;3222;48.858;10.128;2023-03-14T05:56:52;9.10;99.90
6379;DHT22;3222;48.858;10.128;2023-03-14T05:59:36;9.00;99.90
6379;DHT22;3222;48.858;10.128;2023-03-14T06:02:01;9.00;99.90
6379;DHT22;3222;48.858;10.128;2023-03-14T06:04:34;9.00;99.90
6379;DHT22;3222;48.858;10.128;2023-03-14T06:07:00;9.00;99.90
6379;DHT22;3222;48.858;10.128;2023-03-14T06:09:26;9.00;99.90
6379;DHT22;3222;48.858;10.128;2023-03-14T06:11:55;9.00;99.90
6379;DHT22;3222;48.858;10.128;2023-03-14T06:14:21;9.00;99.90
6379;DHT22;3222;48.858;10.128;2023-03-14T06:16:48;9.10;99.90
6379;DHT22;3222;48.858;10.128;2023-03-14T06:19:15;9.10;99.90
6379;DHT22;3222;48.858;10.128;2023-03-14T06:21:42;9.00;99.90
6379;DHT22;3222;48.858;10.128;2023-03-14T06:24:08;9.00;99.90
6379;DHT22;3222;48.858;10.128;2023-03-14T06:26:39;9.00;99.90
6379;DHT22;3222;48.858;10.128;2023-03-14T06:29:05;9.00;99.90
6379;DHT22;3222;48.858;10.128;2023-03-14T06:31:32;9.00;99.90
6379;DHT22;3222;48.858;10.128;2023-03-14T06:34:02;8.80;99.90
6379;DHT22;3222;48.858;10.128;2023-03-14T06:36:30;8.90;99.90
6379;DHT22;3222;48.858;10.128;2023-03-14T06:38:57;8.90;99.90
6379;DHT22;3222;48.858;10.128;2023-03-14T06:41:23;8.90;99.90
6379;DHT22;3222;48.858;10.128;2023-03-14T06:43:51;8.80;99.90
6379;DHT22;3222;48.858;10.128;2023-03-14T06:46:19;8.80;99.90
6379;DHT22;3222;48.858;10.128;2023-03-14T06:48:44;8.70;99.90
6379;DHT22;3222;48.858;10.128;2023-03-14T06:51:11;8.80;99.90
6379;DHT22;3222;48.858;10.128;2023-03-14T06:53:37;8.80;99.90
6379;DHT22;3222;48.858;10.128;2023-03-14T06:56:02;8.80;99.90
6379;DHT22;3222;48.858;10.128;2023-03-14T06:58:30;8.90;99.90
6379;DHT22;3222;48.858;10.128;2023-03-14T07:00:56;8.80;99.90
6379;DHT22;3222;48.858;10.128;2023-03-14T07:03:26;8.90;99.90
6379;DHT22;3222;48.858;10.128;2023-03-14T07:05:54;8.90;99.90
6379;DHT22;3222;48.858;10.128;2023-03-14T07:08:20;8.80;99.90
6379;DHT22;3222;48.858;10.128;2023-03-14T07:10:45;8.80;99.90
6379;DHT22;3222;48.858;10.128;2023-03-14T07:13:11;8.90;99.90
6379;DHT22;3222;48.858;10.128;2023-03-14T07:15:57;8.90;99.90
6379;DHT22;3222;48.858;10.128;2023-03-14T07:18:23;9.00;99.90
6379;DHT22;3222;48.858;10.128;2023-03-14T07:20:49;9.00;99.90
6379;DHT22;3222;48.858;10.128;2023-03-14T07:23:14;8.90;99.90
6379;DHT22;3222;48.858;10.128;2023-03-14T07:25:46;8.90;99.90
6379;DHT22;3222;48.858;10.128;2023-03-14T07:28:12;9.00;99.90
6379;DHT22;3222;48.858;10.128;2023-03-14T07:30:40;9.00;99.90
6379;DHT22;3222;48.858;10.128;2023-03-14T07:33:14;8.90;99.90
6379;DHT22;3222;48.858;10.128;2023-03-14T07:35:40;8.90;99.90
6379;DHT22;3222;48.858;10.128;2023-03-14T07:38:05;8.90;99.90
6379;DHT22;3222;48.858;10.128;2023-03-14T07:40:36;8.90;99.90
6379;DHT22;3222;48.858;10.128;2023-03-14T07:43:04;8.90;99.90
6379;DHT22;3222;48.858;10.128;2023-03-14T07:45:40;9.00;99.90
6379;DHT22;3222;48.858;10.128;2023-03-14T07:48:06;9.00;99.90
6379;DHT22;3222;48.858;10.128;2023-03-14T07:50:31;9.10;99.90
6379;DHT22;3222;48.858;10.128;2023-03-14T07:52:57;9.10;99.90
6379;DHT22;3222;48.858;10.128;2023-03-14T07:55:23;9.20;99.90
6379;DHT22;3222;48.858;10.128;2023-03-14T07:57:48;9.20;99.90
6379;DHT22;3222;48.858;10.128;2023-03-14T08:00:15;9.30;99.90
6379;DHT22;3222;48.858;10.128;2023-03-14T08:02:41;9.20;99.90
6379;DHT22;3222;48.858;10.128;2023-03-14T08:05:07;9.10;99.90
6379;DHT22;3222;48.858;10.128;2023-03-14T08:07:33;9.20;99.90
6379;DHT22;3222;48.858;10.128;2023-03-14T08:09:59;9.20;99.90
6379;DHT22;3222;48.858;10.128;2023-03-14T08:12:24;9.30;99.90
6379;DHT22;3222;48.858;10.128;2023-03-14T08:14:50;9.30;99.90
6379;DHT22;3222;48.858;10.128;2023-03-14T08:17:16;9.40;99.90
6379;DHT22;3222;48.858;10.128;2023-03-14T08:19:42;9.40;99.90
6379;DHT22;3222;48.858;10.128;2023-03-14T08:22:07;9.40;99.90
6379;DHT22;3222;48.858;10.128;2023-03-14T08:24:33;9.30;99.90
6379;DHT22;3222;48.858;10.128;2023-03-14T08:26:59;9.30;99.90
6379;DHT22;3222;48.858;10.128;2023-03-14T08:29:25;9.40;99.90
6379;DHT22;3222;48.858;10.128;2023-03-14T08:31:51;9.40;99.90
6379;DHT22;3222;48.858;10.128;2023-03-14T08:34:16;9.50;99.90
6379;DHT22;3222;48.858;10.128;2023-03-14T08:36:42;9.40;99.90
6379;DHT22;3222;48.858;10.128;2023-03-14T08:39:08;9.50;99.90
6379;DHT22;3222;48.858;10.128;2023-03-14T08:41:35;9.50;99.90
6379;DHT22;3222;48.858;10.128;2023-03-14T08:44:06;9.50;99.90
6379;DHT22;3222;48.858;10.128;2023-03-14T08:46:32;9.60;99.90
6379;DHT22;3222;48.858;10.128;2023-03-14T08:48:58;9.50;99.90
6379;DHT22;3222;48.858;10.128;2023-03-14T08:51:23;9.40;99.90
6379;DHT22;3222;48.858;10.128;2023-03-14T08:53:49;9.50;99.90
6379;DHT22;3222;48.858;10.128;2023-03-14T08:56:15;9.60;99.90
6379;DHT22;3222;48.858;10.128;2023-03-14T08:58:42;9.60;99.90
6379;DHT22;3222;48.858;10.128;2023-03-14T09:01:09;9.60;99.90
6379;DHT22;3222;48.858;10.128;2023-03-14T09:03:35;9.50;99.90
6379;DHT22;3222;48.858;10.128;2023-03-14T09:06:05;9.60;99.90
6379;DHT22;3222;48.858;10.128;2023-03-14T09:08:31;9.60;99.90
6379;DHT22;3222;48.858;10.128;2023-03-14T09:10:57;9.60;99.90
6379;DHT22;3222;48.858;10.128;2023-03-14T09:13:23;9.60;99.90
6379;DHT22;3222;48.858;10.128;2023-03-14T09:15:55;9.60;99.90
6379;DHT22;3222;48.858;10.128;2023-03-14T09:18:21;9.60;99.90
6379;DHT22;3222;48.858;10.128;2023-03-14T09:20:48;9.60;99.90
6379;DHT22;3222;48.858;10.128;2023-03-14T09:23:15;9.60;99.90
6379;DHT22;3222;48.858;10.128;2023-03-14T09:25:41;9.70;99.90
6379;DHT22;3222;48.858;10.128;2023-03-14T09:28:06;9.70;99.90
6379;DHT22;3222;48.858;10.128;2023-03-14T09:30:32;9.70;99.90
6379;DHT22;3222;48.858;10.128;2023-03-14T09:32:58;9.80;99.90
6379;DHT22;3222;48.858;10.128;2023-03-14T09:35:25;9.70;99.90
6379;DHT22;3222;48.858;10.128;2023-03-14T09:37:50;9.80;99.90
6379;DHT22;3222;48.858;10.128;2023-03-14T09:40:18;9.90;99.90
6379;DHT22;3222;48.858;10.128;2023-03-14T09:42:50;9.80;99.90
6379;DHT22;3222;48.858;10.128;2023-03-14T09:45:26;9.90;99.90
6379;DHT22;3222;48.858;10.128;2023-03-14T09:47:53;9.90;99.90
6379;DHT22;3222;48.858;10.128;2023-03-14T09:50:19;10.00;99.90
6379;DHT22;3222;48.858;10.128;2023-03-14T09:52:49;10.00;99.90
6379;DHT22;3222;48.858;10.128;2023-03-14T09:55:16;9.90;99.90
6379;DHT22;3222;48.858;10.128;2023-03-14T09:57:43;10.00;99.90
6379;DHT22;3222;48.858;10.128;2023-03-14T10:00:21;10.00;99.90
6379;DHT22;3222;48.858;10.128;2023-03-14T10:05:40;10.00;99.90
6379;DHT22;3222;48.858;10.128;2023-03-14T10:08:10;10.10;99.90
6379;DHT22;3222;48.858;10.128;2023-03-14T10:10:36;10.10;99.90
6379;DHT22;3222;48.858;10.128;2023-03-14T10:15:39;10.10;99.90
6379;DHT22;3222;48.858;10.128;2023-03-14T10:18:11;10.10;99.90
6379;DHT22;3222;48.858;10.128;2023-03-14T10:20:39;10.10;99.90
6379;DHT22;3222;48.858;10.128;2023-03-14T10:23:23;10.10;99.90
6379;DHT22;3222;48.858;10.128;2023-03-14T10:28:37;10.20;99.90
6379;DHT22;3222;48.858;10.128;2023-03-14T10:31:03;10.20;99.90
6379;DHT22;3222;48.858;10.128;2023-03-14T10:33:31;10.30;99.90
6379;DHT22;3222;48.858;10.128;2023-03-14T10:36:02;10.30;99.90
6379;DHT22;3222;48.858;10.128;2023-03-14T10:38:34;10.40;99.90
6379;DHT22;3222;48.858;10.128;2023-03-14T10:41:00;10.40;99.90
6379;DHT22;3222;48.858;10.128;2023-03-14T10:43:31;10.40;99.90
6379;DHT22;3222;48.858;10.128;2023-03-14T10:46:17;10.50;99.90
6379;DHT22;3222;48.858;10.128;2023-03-14T10:49:05;10.50;99.90
6379;DHT22;3222;48.858;10.128;2023-03-14T10:51:31;10.50;99.90
6379;DHT22;3222;48.858;10.128;2023-03-14T10:54:00;10.60;99.90
6379;DHT22;3222;48.858;10.128;2023-03-14T10:56:33;10.60;99.90
6379;DHT22;3222;48.858;10.128;2023-03-14T10:58:59;10.60;99.90
6379;DHT22;3222;48.858;10.128;2023-03-14T11:01:27;10.60;99.90
6379;DHT22;3222;48.858;10.128;2023-03-14T11:09:53;10.70;99.90
6379;DHT22;3222;48.858;10.128;2023-03-14T11:15:09;10.70;99.90
6379;DHT22;3222;48.858;10.128;2023-03-14T11:17:51;10.70;99.90
6379;DHT22;3222;48.858;10.128;2023-03-14T11:20:55;10.70;99.90
6379;DHT22;3222;48.858;10.128;2023-03-14T11:26:26;10.80;99.90
6379;DHT22;3222;48.858;10.128;2023-03-14T11:29:41;10.80;99.90
6379;DHT22;3222;48.858;10.128;2023-03-14T11:32:19;10.80;99.90
6379;DHT22;3222;48.858;10.128;2023-03-14T11:34:52;10.80;99.90
6379;DHT22;3222;48.858;10.128;2023-03-14T11:37:35;10.90;99.90
6379;DHT22;3222;48.858;10.128;2023-03-14T11:42:28;10.90;99.90
6379;DHT22;3222;48.858;10.128;2023-03-14T11:44:55;10.80;99.90
6379;DHT22;3222;48.858;10.128;2023-03-14T11:47:41;10.90;99.90
6379;DHT22;3222;48.858;10.128;2023-03-14T11:52:54;10.90;99.90
6379;DHT22;3222;48.858;10.128;2023-03-14T11:55:32;10.80;99.90
6379;DHT22;3222;48.858;10.128;2023-03-14T11:58:05;10.80;99.90
6379;DHT22;3222;48.858;10.128;2023-03-14T12:00:35;10.80;99.90
6379;DHT22;3222;48.858;10.128;2023-03-14T12:03:30;10.80;99.90
6379;DHT22;3222;48.858;10.128;2023-03-14T12:08:45;10.80;99.90
6379;DHT22;3222;48.858;10.128;2023-03-14T12:13:56;10.70;99.90
6379;DHT22;3222;48.858;10.128;2023-03-14T12:16:38;10.70;99.90
6379;DHT22;3222;48.858;10.128;2023-03-14T12:21:51;10.70;99.90
6379;DHT22;3222;48.858;10.128;2023-03-14T12:24:26;10.60;99.90
6379;DHT22;3222;48.858;10.128;2023-03-14T12:26:57;10.60;99.90
6379;DHT22;3222;48.858;10.128;2023-03-14T12:29:23;10.60;99.90
6379;DHT22;3222;48.858;10.128;2023-03-14T12:32:08;10.50;99.90
6379;DHT22;3222;48.858;10.128;2023-03-14T12:34:38;10.50;99.90
6379;DHT22;3222;48.858;10.128;2023-03-14T12:37:33;10.50;99.90
6379;DHT22;3222;48.858;10.128;2023-03-14T12:40:13;10.50;99.90
6379;DHT22;3222;48.858;10.128;2023-03-14T12:42:58;10.50;99.90
6379;DHT22;3222;48.858;10.128;2023-03-14T12:45:29;10.40;99.90
6379;DHT22;3222;48.858;10.128;2023-03-14T12:50:44;10.50;99.90
6379;DHT22;3222;48.858;10.128;2023-03-14T12:56:21;10.40;99.90
6379;DHT22;3222;48.858;10.128;2023-03-14T12:59:18;10.40;99.90
6379;DHT22;3222;48.858;10.128;2023-03-14T13:01:59;10.30;99.90
6379;DHT22;3222;48.858;10.128;2023-03-14T13:04:37;10.20;99.90
6379;DHT22;3222;48.858;10.128;2023-03-14T13:07:34;10.20;99.90
6379;DHT22;3222;48.858;10.128;2023-03-14T13:12:55;10.20;99.90
6379;DHT22;3222;48.858;10.128;2023-03-14T13:15:28;10.30;99.90
6379;DHT22;3222;48.858;10.128;2023-03-14T13:18:11;10.20;99.90
6379;DHT22;3222;48.858;10.128;2023-03-14T13:21:00;10.20;99.90
6379;DHT22;3222;48.858;10.128;2023-03-14T13:23:31;10.20;99.90
6379;DHT22;3222;48.858;10.128;2023-03-14T13:25:58;10.20;99.90
6379;DHT22;3222;48.858;10.128;2023-03-14T13:28:24;10.10;99.90
6379;DHT22;3222;48.858;10.128;2023-03-14T13:30:55;10.20;99.90
6379;DHT22;3222;48.858;10.128;2023-03-14T13:33:22;10.20;99.90
6379;DHT22;3222;48.858;10.128;2023-03-14T13:35:53;10.10;99.90
6379;DHT22;3222;48.858;10.128;2023-03-14T13:38:22;10.10;99.90
6379;DHT22;3222;48.858;10.128;2023-03-14T13:40:49;10.10;99.90
6379;DHT22;3222;48.858;10.128;2023-03-14T13:43:43;10.00;99.90
6379;DHT22;3222;48.858;10.128;2023-03-14T13:46:12;10.00;99.90
6379;DHT22;3222;48.858;10.128;2023-03-14T13:48:52;10.00;99.90
6379;DHT22;3222;48.858;10.128;2023-03-14T13:51:19;9.90;99.90
6379;DHT22;3222;48.858;10.128;2023-03-14T13:53:48;9.90;99.90
6379;DHT22;3222;48.858;10.128;2023-03-14T13:56:16;9.80;99.90
6379;DHT22;3222;48.858;10.128;2023-03-14T13:58:43;9.80;99.90
6379;DHT22;3222;48.858;10.128;2023-03-14T14:01:32;9.80;99.90
6379;DHT22;3222;48.858;10.128;2023-03-14T14:04:05;9.80;99.90
6379;DHT22;3222;48.858;10.128;2023-03-14T14:06:36;9.70;99.90
6379;DHT22;3222;48.858;10.128;2023-03-14T14:09:11;9.70;99.90
6379;DHT22;3222;48.858;10.128;2023-03-14T14:11:38;9.70;99.90
6379;DHT22;3222;48.858;10.128;2023-03-14T14:14:15;9.70;99.90
6379;DHT22;3222;48.858;10.128;2023-03-14T14:16:43;9.60;99.90
6379;DHT22;3222;48.858;10.128;2023-03-14T14:19:09;9.60;99.90
6379;DHT22;3222;48.858;10.128;2023-03-14T14:21:35;9.50;99.90
6379;DHT22;3222;48.858;10.128;2023-03-14T14:24:01;9.40;99.90
6379;DHT22;3222;48.858;10.128;2023-03-14T14:26:27;9.50;99.90
6379;DHT22;3222;48.858;10.128;2023-03-14T14:29:05;9.40;99.90
6379;DHT22;3222;48.858;10.128;2023-03-14T14:31:31;9.40;99.90
6379;DHT22;3222;48.858;10.128;2023-03-14T14:34:01;9.40;99.90
6379;DHT22;3222;48.858;10.128;2023-03-14T14:36:31;9.40;99.90
6379;DHT22;3222;48.858;10.128;2023-03-14T14:39:05;9.40;99.90
6379;DHT22;3222;48.858;10.128;2023-03-14T14:41:33;9.40;99.90
6379;DHT22;3222;48.858;10.128;2023-03-14T14:44:03;9.30;99.90
6379;DHT22;3222;48.858;10.128;2023-03-14T14:46:31;9.40;99.90
6379;DHT22;3222;48.858;10.128;2023-03-14T14:49:06;9.40;99.90
6379;DHT22;3222;48.858;10.128;2023-03-14T14:51:40;9.40;99.90
6379;DHT22;3222;48.858;10.128;2023-03-14T14:54:18;9.30;99.90
6379;DHT22;3222;48.858;10.128;2023-03-14T14:56:51;9.30;99.90
6379;DHT22;3222;48.858;10.128;2023-03-14T14:59:25;9.20;99.90
6379;DHT22;3222;48.858;10.128;2023-03-14T15:02:01;9.20;99.90
6379;DHT22;3222;48.858;10.128;2023-03-14T15:04:30;9.10;99.90
6379;DHT22;3222;48.858;10.128;2023-03-14T15:06:56;9.10;99.90
6379;DHT22;3222;48.858;10.128;2023-03-14T15:09:22;9.00;99.90
6379;DHT22;3222;48.858;10.128;2023-03-14T15:11:48;9.00;99.90
6379;DHT22;3222;48.858;10.128;2023-03-14T15:14:14;8.90;99.90
6379;DHT22;3222;48.858;10.128;2023-03-14T15:16:40;8.90;99.90
6379;DHT22;3222;48.858;10.128;2023-03-14T15:19:21;8.80;99.90
6379;DHT22;3222;48.858;10.128;2023-03-14T15:21:47;8.70;99.90
6379;DHT22;3222;48.858;10.128;2023-03-14T15:24:12;8.70;99.90
6379;DHT22;3222;48.858;10.128;2023-03-14T15:26:38;8.70;99.90
6379;DHT22;3222;48.858;10.128;2023-03-14T15:29:04;8.60;99.90
6379;DHT22;3222;48.858;10.128;2023-03-14T15:31:34;8.60;99.90
6379;DHT22;3222;48.858;10.128;2023-03-14T15:34:01;8.60;99.90
6379;DHT22;3222;48.858;10.128;2023-03-14T15:36:29;8.60;99.90
6379;DHT22;3222;48.858;10.128;2023-03-14T15:38:56;8.50;99.90
6379;DHT22;3222;48.858;10.128;2023-03-14T15:41:24;8.50;99.90
6379;DHT22;3222;48.858;10.128;2023-03-14T15:43:50;8.40;99.90
6379;DHT22;3222;48.858;10.128;2023-03-14T15:46:16;8.40;99.90
6379;DHT22;3222;48.858;10.128;2023-03-14T15:48:47;8.40;99.90
6379;DHT22;3222;48.858;10.128;2023-03-14T15:51:13;8.40;99.90
6379;DHT22;3222;48.858;10.128;2023-03-14T15:53:40;8.40;99.90
6379;DHT22;3222;48.858;10.128;2023-03-14T15:56:07;8.30;99.90
6379;DHT22;3222;48.858;10.128;2023-03-14T15:58:35;8.30;99.90
6379;DHT22;3222;48.858;10.128;2023-03-14T16:01:01;8.30;99.90
6379;DHT22;3222;48.858;10.128;2023-03-14T16:03:30;8.30;99.90
6379;DHT22;3222;48.858;10.128;2023-03-14T16:05:56;8.20;99.90
6379;DHT22;3222;48.858;10.128;2023-03-14T16:08:23;8.20;99.90
6379;DHT22;3222;48.858;10.128;2023-03-14T16:10:50;8.20;99.90
6379;DHT22;3222;48.858;10.128;2023-03-14T16:13:16;8.20;99.90
6379;DHT22;3222;48.858;10.128;2023-03-14T16:15:42;8.20;99.90
6379;DHT22;3222;48.858;10.128;2023-03-14T16:18:08;8.20;99.90
6379;DHT22;3222;48.858;10.128;2023-03-14T16:20:33;8.20;99.90
6379;DHT22;3222;48.858;10.128;2023-03-14T16:22:59;8.20;99.90
6379;DHT22;3222;48.858;10.128;2023-03-14T16:25:25;8.10;99.90
6379;DHT22;3222;48.858;10.128;2023-03-14T16:27:50;8.10;99.90
6379;DHT22;3222;48.858;10.128;2023-03-14T16:30:16;8.10;99.90
6379;DHT22;3222;48.858;10.128;2023-03-14T16:32:42;8.10;99.90
6379;DHT22;3222;48.858;10.128;2023-03-14T16:35:10;8.10;99.90
6379;DHT22;3222;48.858;10.128;2023-03-14T16:37:36;8.10;99.90
6379;DHT22;3222;48.858;10.128;2023-03-14T16:40:02;8.00;99.90
6379;DHT22;3222;48.858;10.128;2023-03-14T16:42:27;8.00;99.90
6379;DHT22;3222;48.858;10.128;2023-03-14T16:44:53;8.00;99.90
6379;DHT22;3222;48.858;10.128;2023-03-14T16:47:19;7.90;99.90
6379;DHT22;3222;48.858;10.128;2023-03-14T16:49:44;7.90;99.90
6379;DHT22;3222;48.858;10.128;2023-03-14T16:52:10;7.90;99.90
6379;DHT22;3222;48.858;10.128;2023-03-14T16:54:36;7.90;99.90
6379;DHT22;3222;48.858;10.128;2023-03-14T16:57:02;7.90;99.90
6379;DHT22;3222;48.858;10.128;2023-03-14T16:59:27;7.90;99.90
6379;DHT22;3222;48.858;10.128;2023-03-14T17:01:54;7.90;99.90